Main page
METAR-TAF:

METAR-TAF

Airports :

Leipzig–Altenburg Airport

Altenburg, Germany

latitude: 50-58N, longitude: 012-30E, elevation: 195 m

Current weather observation

The report was made 39 minutes ago, at 23:20 UTC
Calm wind
Temperature 16°C
Humidity 68%
Pressure 1012 hPa
Visibility 10 km or more

METAR: EDAC 202320Z AUTO 00000KT 9999 // NCD 16/10 Q1012

Time: 01:59 (23:59 UTC)

Forecast

The report was made 30 hours and 59 minutes ago, at 17:00 UTC
Forecast valid from 19 at 18 UTC to 20 at 03 UTC
Wind 4 kt from the East
Visibility 10 km or more
no clouds below 1500 m and no cumulonimbus

TAF: EDAC 191700Z 1918/2003 08004KT CAVOK

Weather observations and forecasts of more than 4000 airports (METAR and TAF reports).

The available stations are represented by yellow and red dots on the map.

Hover mouse over dot to see the name of the station.

Then click to see weather observations and forecasts.

To change the map : click on the green buttons with a black cross to zoom in, on the green button with a dash to zoom out, or on the green arrows for adjacent maps.


METAR-TAF: